createdAt,value
2018-07-14T00:00:57.137Z,16.90
2018-07-14T00:03:26.370Z,16.90
2018-07-14T00:05:54.824Z,16.90
2018-07-14T00:08:23.076Z,16.90
2018-07-14T00:10:51.493Z,16.90
2018-07-14T00:13:19.756Z,16.90
2018-07-14T00:15:48.017Z,16.90
2018-07-14T00:18:16.295Z,16.80
2018-07-14T00:20:44.545Z,16.80
2018-07-14T00:23:12.801Z,16.80
2018-07-14T00:25:46.427Z,16.70
2018-07-14T00:28:14.718Z,16.70
2018-07-14T00:30:42.969Z,16.60
2018-07-14T00:33:11.248Z,16.50
2018-07-14T00:35:39.497Z,16.40
2018-07-14T00:38:07.764Z,16.40
2018-07-14T00:40:36.021Z,16.30
2018-07-14T00:43:04.260Z,16.30
2018-07-14T00:45:32.535Z,16.30
2018-07-14T00:48:00.813Z,16.30
2018-07-14T00:50:29.076Z,16.20
2018-07-14T00:52:57.357Z,16.20
2018-07-14T00:55:25.612Z,16.20
2018-07-14T00:57:53.870Z,16.20
2018-07-14T01:00:22.120Z,16.20
2018-07-14T01:02:50.360Z,16.10
2018-07-14T01:05:18.628Z,16.00
2018-07-14T01:07:46.878Z,16.00
2018-07-14T01:10:15.129Z,16.00
2018-07-14T01:12:43.377Z,16.00
2018-07-14T01:15:11.633Z,16.00
2018-07-14T01:17:39.931Z,16.00
2018-07-14T01:20:08.164Z,16.00
2018-07-14T01:22:36.421Z,16.00
2018-07-14T01:25:04.688Z,16.00
2018-07-14T01:27:32.955Z,15.90
2018-07-14T01:30:01.222Z,15.90
2018-07-14T01:32:29.481Z,15.90
2018-07-14T01:34:57.745Z,15.80
2018-07-14T01:37:26.009Z,15.80
2018-07-14T01:39:54.269Z,15.80
2018-07-14T01:42:22.547Z,15.80
2018-07-14T01:44:50.814Z,15.70
2018-07-14T01:47:19.061Z,15.70
2018-07-14T01:49:47.316Z,15.70
2018-07-14T01:52:15.560Z,15.70
2018-07-14T01:54:43.803Z,15.60
2018-07-14T01:57:12.068Z,15.60
2018-07-14T01:59:40.328Z,15.60
2018-07-14T02:02:08.596Z,15.60
2018-07-14T02:04:36.848Z,15.60
2018-07-14T02:07:05.104Z,15.60
2018-07-14T02:09:33.359Z,15.50
2018-07-14T02:12:01.612Z,15.50
2018-07-14T02:14:29.865Z,15.50
2018-07-14T02:16:58.113Z,15.50
2018-07-14T02:19:26.367Z,15.40
2018-07-14T02:21:54.593Z,15.40
2018-07-14T02:24:22.841Z,15.40
2018-07-14T02:26:51.121Z,15.40
2018-07-14T02:29:19.372Z,15.30
2018-07-14T02:31:47.625Z,15.30
2018-07-14T02:34:15.880Z,15.40
2018-07-14T02:36:50.430Z,15.40
2018-07-14T02:39:18.669Z,15.40
2018-07-14T02:41:46.919Z,15.40
2018-07-14T02:44:15.180Z,15.40
2018-07-14T02:46:43.453Z,15.30
2018-07-14T02:49:11.693Z,15.30
2018-07-14T02:51:39.946Z,15.30
2018-07-14T02:54:08.191Z,15.20
2018-07-14T02:56:36.442Z,15.20
2018-07-14T02:59:04.714Z,15.10
2018-07-14T03:01:32.971Z,15.10
2018-07-14T03:04:01.260Z,15.10
2018-07-14T03:06:29.508Z,15.20
2018-07-14T03:08:57.740Z,15.20
2018-07-14T03:11:26.005Z,15.20
2018-07-14T03:13:54.248Z,15.20
2018-07-14T03:16:22.508Z,15.20
2018-07-14T03:18:50.759Z,15.20
2018-07-14T03:21:18.995Z,15.20
2018-07-14T03:23:47.252Z,15.20
2018-07-14T03:26:15.519Z,15.20
2018-07-14T03:28:43.769Z,15.20
2018-07-14T03:31:12.017Z,15.30
2018-07-14T03:33:40.274Z,15.20
2018-07-14T03:36:08.512Z,15.20
2018-07-14T03:38:36.743Z,15.20
2018-07-14T03:41:05.401Z,15.20
2018-07-14T03:43:33.688Z,15.20
2018-07-14T03:46:01.948Z,15.30
2018-07-14T03:48:30.228Z,15.30
2018-07-14T03:50:58.512Z,15.30
2018-07-14T03:53:26.762Z,15.30
2018-07-14T03:55:55.060Z,15.30
2018-07-14T03:58:23.319Z,15.40
2018-07-14T04:00:51.599Z,15.50
2018-07-14T04:03:19.856Z,15.70
2018-07-14T04:05:48.105Z,15.90
2018-07-14T04:08:17.373Z,16.10
2018-07-14T04:10:45.618Z,16.40
2018-07-14T04:13:13.877Z,16.50
2018-07-14T04:15:42.103Z,16.70
2018-07-14T04:18:10.361Z,17.00
2018-07-14T04:20:38.606Z,17.20
2018-07-14T04:23:06.868Z,17.40
2018-07-14T04:25:35.124Z,17.60
2018-07-14T04:28:03.381Z,17.70
2018-07-14T04:30:31.648Z,17.80
2018-07-14T04:32:59.909Z,17.90
2018-07-14T04:35:28.193Z,18.10
2018-07-14T04:37:56.456Z,18.20
2018-07-14T04:40:24.724Z,18.40
2018-07-14T04:42:52.966Z,18.50
2018-07-14T04:45:21.227Z,18.70
2018-07-14T04:47:49.474Z,18.90
2018-07-14T04:50:17.745Z,19.00
2018-07-14T04:52:46.009Z,19.10
2018-07-14T04:55:14.293Z,19.30
2018-07-14T04:57:42.523Z,19.50
2018-07-14T05:00:10.786Z,19.60
2018-07-14T05:02:39.028Z,19.60
2018-07-14T05:05:07.271Z,19.80
2018-07-14T05:07:35.641Z,20.00
2018-07-14T05:10:04.018Z,20.10
2018-07-14T05:12:32.312Z,20.30
2018-07-14T05:15:00.557Z,20.50
2018-07-14T05:17:28.829Z,20.50
2018-07-14T05:19:57.092Z,20.60
2018-07-14T05:22:25.345Z,20.80
2018-07-14T05:24:53.587Z,21.00
2018-07-14T05:27:21.857Z,21.30
2018-07-14T05:29:50.113Z,21.50
2018-07-14T05:32:18.360Z,21.60
2018-07-14T05:34:46.606Z,21.70
2018-07-14T05:37:14.880Z,21.60
2018-07-14T05:39:43.177Z,21.60
2018-07-14T05:42:11.393Z,21.80
2018-07-14T05:44:39.699Z,21.80
2018-07-14T05:47:07.944Z,21.90
2018-07-14T05:49:36.188Z,21.80
2018-07-14T05:52:04.447Z,21.70
2018-07-14T05:54:32.695Z,21.50
2018-07-14T05:57:00.959Z,21.30
2018-07-14T05:59:29.183Z,21.30
2018-07-14T06:01:57.460Z,21.30
2018-07-14T06:04:25.700Z,21.40
2018-07-14T06:06:53.947Z,21.50
2018-07-14T06:09:22.229Z,21.60
2018-07-14T06:11:50.569Z,21.60
2018-07-14T06:14:18.861Z,21.60
2018-07-14T06:16:47.065Z,21.70
2018-07-14T06:19:15.308Z,21.70
2018-07-14T06:21:43.625Z,21.80
2018-07-14T06:24:11.909Z,21.80
2018-07-14T06:26:40.149Z,21.80
2018-07-14T06:29:08.420Z,21.90
2018-07-14T06:31:36.672Z,21.80
2018-07-14T06:34:11.424Z,21.90
2018-07-14T06:36:39.684Z,21.90
2018-07-14T06:39:07.938Z,21.80
2018-07-14T06:41:36.201Z,21.90
2018-07-14T06:44:04.460Z,21.90
2018-07-14T06:46:32.712Z,21.80
2018-07-14T06:49:00.970Z,21.80
2018-07-14T06:51:29.241Z,21.90
2018-07-14T06:53:57.488Z,22.20
2018-07-14T06:56:25.749Z,22.30
2018-07-14T06:58:53.987Z,22.40
2018-07-14T07:01:22.315Z,22.50
2018-07-14T07:03:50.559Z,22.50
2018-07-14T07:06:18.954Z,22.70
2018-07-14T07:08:47.192Z,23.00
2018-07-14T07:11:15.488Z,23.30
2018-07-14T07:13:43.747Z,23.40
2018-07-14T07:16:11.986Z,23.50
2018-07-14T07:18:40.253Z,23.60
2018-07-14T07:21:08.575Z,23.70
2018-07-14T07:23:36.815Z,23.60
2018-07-14T07:26:05.137Z,23.60
2018-07-14T07:28:33.420Z,23.60
2018-07-14T07:31:01.686Z,23.60
2018-07-14T07:33:29.952Z,23.60
2018-07-14T07:35:58.285Z,23.50
2018-07-14T07:38:26.604Z,23.60
2018-07-14T07:40:54.875Z,23.70
2018-07-14T07:43:23.180Z,23.80
2018-07-14T07:45:51.388Z,23.90
2018-07-14T07:48:19.635Z,24.00
2018-07-14T07:50:47.909Z,23.90
2018-07-14T07:53:16.161Z,23.90
2018-07-14T07:55:44.571Z,24.10
2018-07-14T07:58:12.860Z,24.20
2018-07-14T08:00:41.121Z,24.30
2018-07-14T08:03:09.372Z,24.30
2018-07-14T08:05:37.644Z,24.50
2018-07-14T08:08:05.929Z,24.60
2018-07-14T08:10:34.168Z,24.90
2018-07-14T08:13:02.505Z,25.10
2018-07-14T08:15:30.744Z,25.30
2018-07-14T08:17:58.989Z,25.40
2018-07-14T08:20:27.258Z,25.30
2018-07-14T08:22:55.597Z,25.30
2018-07-14T08:25:23.804Z,25.40
2018-07-14T08:27:52.031Z,25.40
2018-07-14T08:30:20.283Z,25.50
2018-07-14T08:32:48.605Z,25.60
2018-07-14T08:35:16.922Z,25.70
2018-07-14T08:37:45.184Z,25.80
2018-07-14T08:40:13.560Z,25.80
2018-07-14T08:42:41.825Z,25.80
2018-07-14T08:45:10.085Z,25.80
2018-07-14T08:47:38.341Z,25.70
2018-07-14T08:50:06.580Z,25.80
2018-07-14T08:52:34.842Z,25.90
2018-07-14T08:55:03.121Z,26.00
2018-07-14T08:57:31.370Z,26.10
2018-07-14T08:59:59.621Z,26.10
2018-07-14T09:02:27.884Z,26.10
2018-07-14T09:04:56.123Z,26.00
2018-07-14T09:07:24.381Z,25.80
2018-07-14T09:09:52.653Z,25.60
2018-07-14T09:12:20.941Z,25.50
2018-07-14T09:14:49.185Z,25.40
2018-07-14T09:17:17.464Z,25.30
2018-07-14T09:19:45.701Z,25.40
2018-07-14T09:22:13.961Z,25.50
2018-07-14T09:24:42.224Z,25.60
2018-07-14T09:27:10.701Z,25.60
2018-07-14T09:29:38.951Z,25.70
2018-07-14T09:32:07.205Z,25.70
2018-07-14T09:34:35.465Z,25.80
2018-07-14T09:37:03.740Z,25.80
2018-07-14T09:39:31.996Z,25.80
2018-07-14T09:42:00.280Z,25.80
2018-07-14T09:44:28.693Z,25.80
2018-07-14T09:46:57.380Z,25.90
2018-07-14T09:49:25.648Z,25.90
2018-07-14T09:51:53.999Z,26.00
2018-07-14T09:54:22.239Z,26.00
2018-07-14T09:56:50.574Z,25.90
2018-07-14T09:59:18.876Z,25.80
2018-07-14T10:01:47.135Z,25.90
2018-07-14T10:04:15.432Z,26.00
2018-07-14T10:06:43.792Z,26.10
2018-07-14T10:09:12.180Z,26.20
2018-07-14T10:11:40.456Z,26.40
2018-07-14T10:14:08.724Z,26.50
2018-07-14T10:16:36.984Z,26.70
2018-07-14T10:19:05.252Z,27.00
2018-07-14T10:21:33.508Z,27.30
2018-07-14T10:24:01.785Z,27.40
2018-07-14T10:26:30.021Z,27.50
2018-07-14T10:28:58.330Z,27.50
2018-07-14T10:31:26.540Z,27.20
2018-07-14T10:33:54.937Z,27.20
2018-07-14T10:36:23.188Z,27.40
2018-07-14T10:38:51.708Z,27.20
2018-07-14T10:41:19.999Z,26.80
2018-07-14T10:43:48.440Z,27.00
2018-07-14T10:46:16.728Z,27.40
2018-07-14T10:48:44.973Z,27.20
2018-07-14T10:51:13.236Z,27.10
2018-07-14T10:53:41.502Z,27.20
2018-07-14T10:56:09.793Z,27.00
2018-07-14T10:58:38.053Z,27.20
2018-07-14T11:01:06.791Z,27.00
2018-07-14T11:03:35.105Z,26.80
2018-07-14T11:06:03.605Z,26.80
2018-07-14T11:08:32.082Z,26.60
2018-07-14T11:11:00.480Z,26.60
2018-07-14T11:13:28.760Z,26.60
2018-07-14T11:15:57.029Z,26.70
2018-07-14T11:18:25.472Z,26.90
2018-07-14T11:20:53.906Z,27.00
2018-07-14T11:23:22.148Z,26.90
2018-07-14T11:25:50.412Z,26.70
2018-07-14T11:28:18.695Z,26.50
2018-07-14T11:30:46.964Z,26.40
2018-07-14T11:33:15.326Z,26.40
2018-07-14T11:35:43.933Z,26.10
2018-07-14T11:38:12.324Z,26.10
2018-07-14T11:40:40.620Z,25.90
2018-07-14T11:43:08.896Z,25.80
2018-07-14T11:45:37.159Z,25.80
2018-07-14T11:48:05.645Z,25.80
2018-07-14T11:50:33.960Z,25.70
2018-07-14T11:53:02.280Z,25.70
2018-07-14T11:55:30.552Z,25.80
2018-07-14T11:57:58.850Z,25.70
2018-07-14T12:00:27.124Z,25.80
2018-07-14T12:02:55.459Z,25.80
2018-07-14T12:05:23.728Z,25.80
2018-07-14T12:07:52.181Z,26.00
2018-07-14T12:10:20.439Z,26.20
2018-07-14T12:12:48.816Z,26.30
2018-07-14T12:15:17.080Z,26.30
2018-07-14T12:17:45.352Z,26.30
2018-07-14T12:20:13.599Z,26.40
2018-07-14T12:22:41.945Z,26.50
2018-07-14T12:25:10.329Z,26.60
2018-07-14T12:27:38.591Z,26.80
2018-07-14T12:30:06.851Z,26.90
2018-07-14T12:32:35.132Z,26.50
2018-07-14T12:35:03.473Z,25.80
2018-07-14T12:37:31.797Z,25.80
2018-07-14T12:40:00.113Z,25.40
2018-07-14T12:42:31.335Z,25.30
2018-07-14T12:44:59.599Z,24.90
2018-07-14T12:47:27.843Z,24.80
2018-07-14T12:49:56.216Z,24.80
2018-07-14T12:52:24.946Z,24.70
2018-07-14T12:54:53.593Z,24.60
2018-07-14T12:57:28.314Z,24.60
2018-07-14T12:59:56.751Z,24.60
2018-07-14T13:02:25.027Z,24.70
2018-07-14T13:04:53.401Z,24.80
2018-07-14T13:07:21.983Z,25.10
2018-07-14T13:09:50.350Z,25.40
2018-07-14T13:12:18.764Z,25.50
2018-07-14T13:14:47.157Z,25.50
2018-07-14T13:17:15.649Z,25.60
2018-07-14T13:19:43.844Z,25.40
2018-07-14T13:22:12.421Z,25.40
2018-07-14T13:24:40.673Z,25.60
2018-07-14T13:27:08.908Z,25.80
2018-07-14T13:29:37.169Z,25.80
2018-07-14T13:32:05.624Z,25.80
2018-07-14T13:34:33.872Z,25.90
2018-07-14T13:37:02.394Z,26.00
2018-07-14T13:39:30.648Z,26.10
2018-07-14T13:41:59.111Z,26.20
2018-07-14T13:44:27.364Z,26.30
2018-07-14T13:46:55.636Z,26.30
2018-07-14T13:49:24.061Z,26.50
2018-07-14T13:51:52.457Z,26.60
2018-07-14T13:54:20.886Z,26.80
2018-07-14T13:56:49.170Z,26.80
2018-07-14T13:59:17.609Z,26.80
2018-07-14T14:01:45.853Z,26.70
2018-07-14T14:04:14.291Z,26.80
2018-07-14T14:06:42.549Z,26.80
2018-07-14T14:09:10.803Z,26.90
2018-07-14T14:11:39.090Z,26.80
2018-07-14T14:14:07.855Z,26.80
2018-07-14T14:16:36.341Z,26.80
2018-07-14T14:19:05.017Z,26.50
2018-07-14T14:21:33.510Z,26.50
2018-07-14T14:24:01.988Z,26.30
2018-07-14T14:26:30.246Z,26.30
2018-07-14T14:28:58.509Z,26.50
2018-07-14T14:31:26.809Z,26.30
2018-07-14T14:33:55.095Z,26.20
2018-07-14T14:36:23.332Z,26.50
2018-07-14T14:38:51.605Z,26.60
2018-07-14T14:41:19.997Z,26.60
2018-07-14T14:43:48.221Z,26.40
2018-07-14T14:46:16.518Z,26.10
2018-07-14T14:48:44.954Z,26.10
2018-07-14T14:51:13.332Z,26.10
2018-07-14T14:53:45.619Z,25.70
2018-07-14T14:56:13.909Z,25.60
2018-07-14T14:58:42.143Z,25.30
2018-07-14T15:01:10.494Z,25.10
2018-07-14T15:03:38.827Z,24.80
2018-07-14T15:06:07.157Z,24.70
2018-07-14T15:08:35.484Z,24.60
2018-07-14T15:11:03.895Z,24.50
2018-07-14T15:13:32.283Z,24.50
2018-07-14T15:16:00.536Z,24.60
2018-07-14T15:18:28.832Z,24.50
2018-07-14T15:20:57.111Z,24.40
2018-07-14T15:23:25.368Z,24.40
2018-07-14T15:26:01.085Z,24.50
2018-07-14T15:28:29.429Z,24.50
2018-07-14T15:30:57.835Z,24.50
2018-07-14T15:33:26.130Z,24.40
2018-07-14T15:35:54.425Z,24.40
2018-07-14T15:38:22.777Z,24.30
2018-07-14T15:40:51.036Z,24.20
2018-07-14T15:43:19.429Z,24.20
2018-07-14T15:45:47.822Z,24.20
2018-07-14T15:48:16.065Z,24.10
2018-07-14T15:50:44.337Z,23.90
2018-07-14T15:53:12.745Z,23.90
2018-07-14T15:55:41.008Z,23.80
2018-07-14T15:58:09.501Z,23.60
2018-07-14T16:00:37.889Z,23.40
2018-07-14T16:03:06.389Z,23.20
2018-07-14T16:05:34.722Z,22.90
2018-07-14T16:08:03.274Z,22.40
2018-07-14T16:10:31.446Z,21.90
2018-07-14T16:12:59.799Z,21.70
2018-07-14T16:15:28.324Z,21.40
2018-07-14T16:17:56.596Z,21.40
2018-07-14T16:20:25.005Z,21.40
2018-07-14T16:22:53.420Z,21.40
2018-07-14T16:25:21.765Z,21.20
2018-07-14T16:27:50.016Z,21.20
2018-07-14T16:30:18.325Z,21.20
2018-07-14T16:32:46.581Z,21.20
2018-07-14T16:35:14.894Z,21.20
2018-07-14T16:37:43.161Z,21.30
2018-07-14T16:40:11.432Z,21.40
2018-07-14T16:42:39.732Z,21.50
2018-07-14T16:45:08.203Z,21.70
2018-07-14T16:47:36.442Z,22.30
2018-07-14T16:50:05.628Z,23.90
2018-07-14T16:52:34.576Z,24.70
2018-07-14T16:55:02.960Z,25.30
2018-07-14T16:57:31.247Z,25.70
2018-07-14T16:59:59.500Z,25.60
2018-07-14T17:02:27.766Z,26.00
2018-07-14T17:04:56.009Z,26.80
2018-07-14T17:07:24.248Z,27.80
2018-07-14T17:09:52.606Z,28.50
2018-07-14T17:12:20.840Z,28.60
2018-07-14T17:14:49.090Z,27.80
2018-07-14T17:17:17.329Z,27.10
2018-07-14T17:19:45.584Z,26.40
2018-07-14T17:22:14.110Z,25.60
2018-07-14T17:24:42.466Z,25.00
2018-07-14T17:27:10.771Z,24.40
2018-07-14T17:29:38.998Z,24.00
2018-07-14T17:32:07.256Z,23.70
2018-07-14T17:34:35.504Z,23.50
2018-07-14T17:37:03.825Z,23.30
2018-07-14T17:39:32.088Z,23.20
2018-07-14T17:42:00.364Z,23.30
2018-07-14T17:44:28.632Z,23.50
2018-07-14T17:46:56.884Z,23.60
2018-07-14T17:49:25.144Z,23.60
2018-07-14T17:51:53.447Z,23.50
2018-07-14T17:54:21.943Z,23.40
2018-07-14T17:56:50.526Z,23.20
2018-07-14T17:59:18.769Z,23.20
2018-07-14T18:01:47.032Z,23.10
2018-07-14T18:04:15.296Z,22.80
2018-07-14T18:06:43.580Z,22.70
2018-07-14T18:09:12.196Z,22.50
2018-07-14T18:11:40.669Z,22.70
2018-07-14T18:14:08.928Z,22.60
2018-07-14T18:16:37.258Z,22.40
2018-07-14T18:19:05.716Z,22.30
2018-07-14T18:21:33.961Z,22.30
2018-07-14T18:24:02.228Z,22.50
2018-07-14T18:26:30.509Z,22.40
2018-07-14T18:28:58.767Z,22.40
2018-07-14T18:31:27.015Z,22.40
2018-07-14T18:33:55.285Z,22.20
2018-07-14T18:36:23.559Z,21.90
2018-07-14T18:38:51.818Z,21.50
2018-07-14T18:41:20.230Z,21.20
2018-07-14T18:43:48.478Z,21.10
2018-07-14T18:46:16.777Z,20.90
2018-07-14T18:48:45.072Z,20.70
2018-07-14T18:51:13.336Z,20.50
2018-07-14T18:53:41.589Z,20.40
2018-07-14T18:56:09.849Z,20.20
2018-07-14T18:58:38.388Z,20.10
2018-07-14T19:01:07.189Z,20.00
2018-07-14T19:03:35.516Z,19.90
2018-07-14T19:06:03.782Z,19.80
2018-07-14T19:08:32.133Z,19.70
2018-07-14T19:11:00.429Z,19.60
2018-07-14T19:13:28.688Z,19.50
2018-07-14T19:15:56.985Z,19.40
2018-07-14T19:18:25.253Z,19.30
2018-07-14T19:20:53.521Z,19.30
2018-07-14T19:23:21.861Z,19.20
2018-07-14T19:25:50.269Z,19.10
2018-07-14T19:28:18.428Z,19.00
2018-07-14T19:30:46.716Z,19.00
2018-07-14T19:33:14.993Z,19.00
2018-07-14T19:35:43.535Z,18.90
2018-07-14T19:38:11.797Z,18.90
2018-07-14T19:40:40.080Z,18.80
2018-07-14T19:43:08.476Z,18.80
2018-07-14T19:45:36.748Z,18.80
2018-07-14T19:48:05.059Z,18.70
2018-07-14T19:50:33.335Z,18.70
2018-07-14T19:53:01.609Z,18.60
2018-07-14T19:55:30.578Z,18.60
2018-07-14T19:57:58.219Z,18.60
2018-07-14T20:00:26.468Z,18.60
2018-07-14T20:02:54.748Z,18.60
2018-07-14T20:05:23.021Z,18.50
2018-07-14T20:07:51.293Z,18.50
2018-07-14T20:10:19.641Z,18.40
2018-07-14T20:12:47.897Z,18.40
2018-07-14T20:15:16.169Z,18.40
2018-07-14T20:17:44.553Z,18.40
2018-07-14T20:20:12.892Z,18.40
2018-07-14T20:22:41.143Z,18.30
2018-07-14T20:25:09.404Z,18.30
2018-07-14T20:27:37.799Z,18.20
2018-07-14T20:30:06.323Z,18.20
2018-07-14T20:32:34.519Z,18.10
2018-07-14T20:35:02.823Z,18.10
2018-07-14T20:37:31.068Z,18.10
2018-07-14T20:39:59.381Z,18.10
2018-07-14T20:42:27.656Z,18.00
2018-07-14T20:44:55.925Z,17.90
2018-07-14T20:47:24.237Z,17.90
2018-07-14T20:49:52.520Z,17.90
2018-07-14T20:52:20.830Z,17.90
2018-07-14T20:54:49.055Z,17.80
2018-07-14T20:57:17.319Z,17.70
2018-07-14T20:59:45.836Z,17.60
2018-07-14T21:02:14.164Z,17.60
2018-07-14T21:04:42.505Z,17.50
2018-07-14T21:07:10.867Z,17.50
2018-07-14T21:09:39.120Z,17.50
2018-07-14T21:12:07.453Z,17.60
2018-07-14T21:14:35.717Z,17.50
2018-07-14T21:17:03.981Z,17.50
2018-07-14T21:19:32.248Z,17.50
2018-07-14T21:22:00.578Z,17.50
2018-07-14T21:24:28.852Z,17.50
2018-07-14T21:26:57.120Z,17.50
2018-07-14T21:29:25.395Z,17.40
2018-07-14T21:31:53.946Z,17.40
2018-07-14T21:34:22.269Z,17.40
2018-07-14T21:36:50.524Z,17.40
2018-07-14T21:39:18.776Z,17.40
2018-07-14T21:41:47.072Z,17.30
2018-07-14T21:44:15.341Z,17.30
2018-07-14T21:46:43.609Z,17.20
2018-07-14T21:49:11.860Z,17.10
2018-07-14T21:51:40.120Z,17.10
2018-07-14T21:54:08.376Z,17.10
2018-07-14T21:56:36.866Z,17.10
2018-07-14T21:59:05.277Z,17.10
2018-07-14T22:01:37.934Z,17.00
2018-07-14T22:04:06.209Z,17.00
2018-07-14T22:06:34.484Z,16.90
2018-07-14T22:09:02.798Z,16.90
2018-07-14T22:11:31.061Z,16.90
2018-07-14T22:13:59.320Z,16.90
2018-07-14T22:16:27.613Z,16.80
2018-07-14T22:18:55.872Z,16.80
2018-07-14T22:21:24.254Z,16.80
2018-07-14T22:23:52.520Z,16.80
2018-07-14T22:26:20.788Z,16.70
2018-07-14T22:28:49.147Z,16.70
2018-07-14T22:31:17.408Z,16.70
2018-07-14T22:33:45.692Z,16.70
2018-07-14T22:36:13.952Z,16.70
2018-07-14T22:38:42.228Z,16.70
2018-07-14T22:41:10.504Z,16.70
2018-07-14T22:43:38.763Z,16.70
2018-07-14T22:46:07.044Z,16.60
2018-07-14T22:48:35.299Z,16.60
2018-07-14T22:51:03.573Z,16.60
2018-07-14T22:53:31.843Z,16.60
2018-07-14T22:56:00.096Z,16.60
2018-07-14T22:58:28.344Z,16.60
2018-07-14T23:00:56.604Z,16.60
2018-07-14T23:03:24.861Z,16.50
2018-07-14T23:05:53.161Z,16.40
2018-07-14T23:08:21.405Z,16.40
2018-07-14T23:10:49.686Z,16.40
2018-07-14T23:13:17.961Z,16.30
2018-07-14T23:15:46.344Z,16.30
2018-07-14T23:18:14.596Z,16.30
2018-07-14T23:20:42.929Z,16.30
2018-07-14T23:23:11.193Z,16.30
2018-07-14T23:25:39.442Z,16.20
2018-07-14T23:28:07.945Z,16.20
2018-07-14T23:30:42.634Z,16.10
2018-07-14T23:33:10.896Z,16.10
2018-07-14T23:35:39.294Z,16.10
2018-07-14T23:38:07.648Z,16.10
2018-07-14T23:40:35.904Z,16.10
2018-07-14T23:43:04.168Z,16.00
2018-07-14T23:45:35.424Z,16.00
2018-07-14T23:48:03.679Z,15.90
2018-07-14T23:50:31.996Z,15.90
2018-07-14T23:53:00.319Z,15.80
2018-07-14T23:55:28.676Z,15.70
2018-07-14T23:57:56.994Z,15.70
